| time (UTC) | temp F | wind direction | speed knots | gust knots | rain 1hr in | rain 24hr in | rain mn in | humidity % | barometer mb |
| 20260506050103 | 60 | 212 | 1.7 | 6.1 | 0.00 | 0.20 | 0.20 | 51 | 1015.4 |
| 20260506044703 | 59 | 304 | 0.9 | 3.5 | 0.00 | 0.20 | 0.20 | 51 | 1015.4 |
| 20260506043110 | 60 | 0 | 2.6 | 5.2 | 0.00 | 0.20 | 0.20 | 49 | 1015.0 |
| 20260506041603 | 61 | 190 | 1.7 | 6.1 | 0.00 | 0.20 | 0.20 | 47 | 1014.7 |
| 20260506040112 | 61 | 242 | 0.9 | 4.3 | 0.00 | 0.20 | 0.20 | 47 | 1014.4 |
| 20260506034628 | 62 | 242 | 1.7 | 6.1 | 0.00 | 0.20 | 0.20 | 45 | 1014.3 |
| 20260506033104 | 62 | 228 | 2.6 | 6.1 | 0.00 | 0.20 | 0.20 | 44 | 1014.0 |
| 20260506031607 | 63 | 241 | 0.9 | 6.1 | 0.00 | 0.20 | 0.20 | 43 | 1013.8 |
| 20260506030104 | 63 | 230 | 2.6 | 8.7 | 0.00 | 0.20 | 0.20 | 41 | 1013.6 |
| 20260506024600 | 64 | 257 | 4.3 | 9.6 | 0.00 | 0.20 | 0.20 | 40 | 1013.3 |
| 20260506023113 | 65 | 238 | 3.5 | 13.0 | 0.00 | 0.20 | 0.20 | 39 | 1013.0 |
| 20260506021600 | 65 | 225 | 3.5 | 9.6 | 0.00 | 0.20 | 0.20 | 38 | 1012.6 |
| 20260506020059 | 66 | 237 | 7.0 | 13.0 | 0.00 | 0.20 | 0.20 | 38 | 1012.3 |
| 20260506014600 | 67 | 230 | 7.8 | 13.9 | 0.00 | 0.20 | 0.20 | 37 | 1012.1 |
| 20260506013100 | 68 | 233 | 8.7 | 20.0 | 0.00 | 0.20 | 0.20 | 36 | 1012.1 |
| 20260506011625 | 68 | 232 | 7.8 | 17.4 | 0.00 | 0.20 | 0.20 | 34 | 1011.9 |
| 20260506010103 | 69 | 223 | 8.7 | 20.0 | 0.00 | 0.20 | 0.20 | 32 | 1011.8 |
| 20260506004626 | 70 | 259 | 9.6 | 19.1 | 0.00 | 0.20 | 0.20 | 31 | 1011.6 |
| 20260506003112 | 71 | 255 | 8.7 | 22.6 | 0.00 | 0.20 | 0.20 | 29 | 1011.5 |
| 20260506001600 | 71 | 257 | 10.4 | 23.5 | 0.00 | 0.20 | 0.20 | 27 | 1011.5 |
| 20260506000058 | 72 | 243 | 11.3 | 20.0 | 0.00 | 0.20 | 0.20 | 25 | 1011.3 |
| 20260505234637 | 72 | 225 | 12.2 | 24.3 | 0.00 | 0.20 | 0.20 | 24 | 1011.1 |
| 20260505233114 | 72 | 223 | 12.2 | 21.7 | 0.00 | 0.20 | 0.20 | 25 | 1011.1 |
| 20260505231601 | 72 | 272 | 11.3 | 23.5 | 0.00 | 0.20 | 0.20 | 28 | 1011.1 |
| 20260505230100 | 74 | 277 | 8.7 | 20.0 | 0.00 | 0.20 | 0.20 | 30 | 1011.0 |
| 20260505224600 | 74 | 207 | 8.7 | 20.9 | 0.00 | 0.20 | 0.20 | 31 | 1011.1 |
| 20260505223059 | 74 | 258 | 11.3 | 23.5 | 0.00 | 0.20 | 0.20 | 30 | 1011.4 |
| 20260505221601 | 74 | 234 | 7.0 | 23.5 | 0.00 | 0.20 | 0.20 | 31 | 1011.5 |
| 20260505220107 | 74 | 227 | 11.3 | 24.3 | 0.00 | 0.20 | 0.20 | 28 | 1011.5 |
| 20260505214608 | 75 | 201 | 7.8 | 20.0 | 0.00 | 0.20 | 0.20 | 32 | 1011.5 |
| 20260505213105 | 74 | 229 | 13.0 | 27.8 | 0.00 | 0.20 | 0.20 | 31 | 1011.8 |
| 20260505211604 | 74 | 212 | 13.0 | 25.2 | 0.00 | 0.20 | 0.20 | 32 | 1012.0 |
| 20260505210103 | 74 | 233 | 12.2 | 25.2 | 0.00 | 0.20 | 0.20 | 32 | 1012.1 |
| 20260505204603 | 73 | 268 | 13.0 | 24.3 | 0.00 | 0.20 | 0.20 | 35 | 1012.2 |
| 20260505203107 | 74 | 227 | 10.4 | 20.9 | 0.00 | 0.20 | 0.20 | 36 | 1012.3 |
| 20260505201605 | 73 | 254 | 10.4 | 23.5 | 0.00 | 0.20 | 0.20 | 37 | 1012.2 |
| 20260505200108 | 73 | 254 | 10.4 | 25.2 | 0.00 | 0.20 | 0.20 | 39 | 1012.4 |
| 20260505194558 | 73 | 248 | 12.2 | 23.5 | 0.00 | 0.20 | 0.20 | 40 | 1012.5 |
| 20260505193100 | 72 | 246 | 12.2 | 28.7 | 0.00 | 0.20 | 0.20 | 38 | 1012.5 |
| 20260505191602 | 71 | 252 | 12.2 | 22.6 | 0.00 | 0.20 | 0.20 | 41 | 1012.6 |
| 20260505190059 | 71 | 231 | 9.6 | 20.9 | 0.00 | 0.20 | 0.20 | 45 | 1013.1 |
| 20260505184606 | 70 | 232 | 10.4 | 20.9 | 0.00 | 0.20 | 0.20 | 45 | 1013.2 |
| 20260505183100 | 69 | 240 | 7.8 | 14.8 | 0.00 | 0.20 | 0.20 | 49 | 1013.3 |
| 20260505181600 | 68 | 234 | 3.5 | 13.0 | 0.00 | 0.20 | 0.20 | 59 | 1013.6 |
| 20260505180105 | 68 | 280 | 7.8 | 13.0 | 0.00 | 0.20 | 0.20 | 54 | 1013.6 |
| 20260505174613 | 68 | 281 | 4.3 | 12.2 | 0.00 | 0.20 | 0.20 | 56 | 1013.7 |
| 20260505173100 | 68 | 288 | 4.3 | 12.2 | 0.00 | 0.20 | 0.20 | 57 | 1013.7 |
| 20260505171603 | 67 | 299 | 4.3 | 9.6 | 0.00 | 0.20 | 0.20 | 62 | 1013.8 |
| 20260505170138 | 67 | 209 | 0.9 | 7.8 | 0.00 | 0.20 | 0.20 | 61 | 1013.7 |
| 20260505164608 | 64 | 231 | 0.9 | 7.0 | 0.00 | 0.20 | 0.20 | 67 | 1014.0 |
| 20260505163057 | 63 | 302 | 1.7 | 7.8 | 0.00 | 0.20 | 0.20 | 68 | 1014.0 |
| 20260505161604 | 64 | 234 | 2.6 | 7.0 | 0.00 | 0.20 | 0.20 | 67 | 1014.1 |
| 20260505153101 | 60 | 254 | 0.9 | 2.6 | 0.00 | 0.20 | 0.20 | 76 | 1014.1 |
| 20260505151559 | 59 | 0 | 0.0 | 0.9 | 0.00 | 0.20 | 0.20 | 82 | 1013.9 |
| 20260505124601 | 56 | 0 | 0.0 | 2.6 | 0.00 | 0.20 | 0.20 | 91 | 1012.5 |
| 20260505123115 | 56 | 0 | 0.0 | 2.6 | 0.01 | 0.20 | 0.20 | 91 | 1012.6 |
| 20260505121559 | 56 | 0 | 0.9 | 6.1 | 0.01 | 0.20 | 0.20 | 90 | 1012.4 |
| 20260505120058 | 57 | 331 | 0.0 | 0.9 | 0.01 | 0.20 | 0.20 | 90 | 1012.5 |
| 20260505114615 | 57 | 0 | 0.0 | 0.0 | 0.01 | 0.20 | 0.20 | 89 | 1012.1 |
| 20260505113105 | 56 | 0 | 0.0 | 1.7 | 0.00 | 0.19 | 0.19 | 87 | 1012.0 |
| 20260505111611 | 57 | 0 | 0.0 | 1.7 | 0.01 | 0.19 | 0.19 | 87 | 1012.3 |
| 20260505101602 | 56 | 0 | 0.9 | 3.5 | 0.02 | 0.18 | 0.18 | 88 | 1012.9 |
| 20260505100101 | 56 | 0 | 0.9 | 4.3 | 0.03 | 0.18 | 0.18 | 88 | 1013.5 |
| 20260505094557 | 56 | 0 | 0.0 | 2.6 | 0.04 | 0.18 | 0.18 | 88 | 1013.7 |
| 20260505093100 | 56 | 0 | 0.9 | 5.2 | 0.05 | 0.17 | 0.17 | 88 | 1014.0 |
| 20260505091600 | 56 | 163 | 3.5 | 7.8 | 0.08 | 0.16 | 0.16 | 87 | 1014.7 |
| 20260505090100 | 56 | 174 | 3.5 | 7.0 | 0.11 | 0.15 | 0.15 | 88 | 1015.0 |
| 20260505084600 | 56 | 170 | 2.6 | 5.2 | 0.12 | 0.14 | 0.14 | 89 | 1015.7 |
| 20260505083117 | 56 | 156 | 1.7 | 7.0 | 0.11 | 0.12 | 0.12 | 89 | 1015.9 |
| 20260505081600 | 57 | 217 | 2.6 | 6.1 | 0.08 | 0.08 | 0.08 | 88 | 1016.2 |
| 20260505080058 | 57 | 240 | 0.0 | 3.5 | 0.04 | 0.04 | 0.04 | 87 | 1016.2 |
| 20260505074600 | 57 | 240 | 1.7 | 4.3 | 0.02 | 0.02 | 0.02 | 86 | 1016.5 |
| 20260505073107 | 58 | 225 | 1.7 | 7.8 | 0.01 | 0.01 | 0.01 | 82 | 1016.5 |
| 20260505071604 | 58 | 226 | 2.6 | 7.8 | 0.00 | 0.00 | 0.00 | 80 | 1016.4 |
| 20260505070100 | 59 | 200 | 3.5 | 8.7 | 0.00 | 0.00 | 0.00 | 76 | 1016.3 |
| 20260505064604 | 60 | 228 | 5.2 | 10.4 | 0.00 | 0.00 | 0.00 | 71 | 1016.2 |
| 20260505063058 | 60 | 229 | 3.5 | 10.4 | 0.00 | 0.00 | 0.00 | 71 | 1016.1 |
| 20260505061602 | 60 | 240 | 1.7 | 4.3 | 0.00 | 0.00 | 0.00 | 70 | 1016.2 |
| 20260505060104 | 62 | 248 | 5.2 | 13.0 | 0.00 | 0.00 | 0.00 | 66 | 1016.1 |